createdAt,value
2017-08-28T00:00:36.002Z,21.60
2017-08-28T00:03:03.505Z,21.38
2017-08-28T00:05:30.993Z,21.19
2017-08-28T00:07:58.477Z,21.05
2017-08-28T00:10:25.975Z,21.12
2017-08-28T00:12:53.461Z,21.26
2017-08-28T00:15:20.978Z,21.19
2017-08-28T00:17:48.470Z,21.08
2017-08-28T00:20:15.967Z,21.08
2017-08-28T00:22:43.462Z,21.03
2017-08-28T00:25:10.970Z,20.95
2017-08-28T00:27:38.467Z,21.05
2017-08-28T00:30:05.981Z,21.10
2017-08-28T00:32:33.473Z,21.07
2017-08-28T00:35:00.961Z,20.96
2017-08-28T00:37:28.433Z,20.94
2017-08-28T00:39:55.927Z,21.01
2017-08-28T00:42:23.469Z,21.02
2017-08-28T00:44:50.943Z,21.02
2017-08-28T00:47:18.431Z,20.94
2017-08-28T00:49:45.921Z,20.93
2017-08-28T00:52:13.437Z,20.91
2017-08-28T00:54:40.901Z,20.92
2017-08-28T00:57:08.423Z,20.89
2017-08-28T00:59:36.373Z,20.86
2017-08-28T01:02:03.894Z,20.86
2017-08-28T01:04:31.384Z,20.79
2017-08-28T01:06:58.854Z,20.71
2017-08-28T01:09:26.387Z,20.61
2017-08-28T01:11:54.689Z,20.66
2017-08-28T01:14:22.197Z,20.70
2017-08-28T01:16:49.675Z,20.60
2017-08-28T01:19:17.175Z,20.58
2017-08-28T01:21:44.652Z,20.65
2017-08-28T01:24:12.675Z,20.68
2017-08-28T01:26:40.183Z,20.71
2017-08-28T01:34:53.528Z,20.46
2017-08-28T01:37:21.025Z,20.58
2017-08-28T01:39:48.541Z,20.47
2017-08-28T01:42:16.153Z,20.43
2017-08-28T01:44:43.687Z,20.52
2017-08-28T01:47:11.188Z,20.52
2017-08-28T01:49:38.716Z,20.55
2017-08-28T01:52:06.189Z,20.44
2017-08-28T01:54:33.702Z,20.40
2017-08-28T01:57:01.169Z,20.33
2017-08-28T01:59:28.657Z,20.43
2017-08-28T02:01:56.149Z,20.39
2017-08-28T02:04:23.661Z,20.31
2017-08-28T02:06:51.155Z,20.31
2017-08-28T02:09:18.664Z,20.23
2017-08-28T02:11:46.147Z,20.25
2017-08-28T02:14:13.661Z,20.12
2017-08-28T02:16:41.140Z,19.95
2017-08-28T02:19:08.660Z,19.99
2017-08-28T02:21:36.999Z,19.92
2017-08-28T02:24:05.322Z,19.97
2017-08-28T02:26:32.831Z,19.95
2017-08-28T02:29:00.310Z,19.99
2017-08-28T02:31:27.801Z,20.04
2017-08-28T02:33:55.294Z,19.98
2017-08-28T02:36:22.805Z,19.76
2017-08-28T02:38:50.288Z,19.60
2017-08-28T02:41:17.803Z,19.71
2017-08-28T02:43:45.296Z,19.68
2017-08-28T02:46:12.950Z,19.78
2017-08-28T02:48:40.441Z,19.85
2017-08-28T02:51:07.928Z,19.75
2017-08-28T02:53:35.423Z,19.71
2017-08-28T02:56:02.902Z,19.76
2017-08-28T02:58:30.413Z,19.72
2017-08-28T03:00:57.878Z,19.77
2017-08-28T03:03:25.379Z,19.88
2017-08-28T03:05:52.914Z,19.80
2017-08-28T03:08:20.439Z,19.77
2017-08-28T03:10:47.922Z,19.48
2017-08-28T03:13:15.418Z,19.49
2017-08-28T03:15:42.947Z,19.39
2017-08-28T03:18:10.460Z,19.44
2017-08-28T03:20:37.999Z,19.57
2017-08-28T03:23:05.485Z,19.56
2017-08-28T03:25:32.972Z,19.50
2017-08-28T03:28:00.466Z,19.57
2017-08-28T03:30:28.339Z,19.53
2017-08-28T03:32:55.827Z,19.53
2017-08-28T03:35:23.332Z,19.51
2017-08-28T03:37:50.840Z,19.46
2017-08-28T03:40:18.564Z,19.52
2017-08-28T03:42:46.042Z,19.43
2017-08-28T03:45:13.518Z,19.37
2017-08-28T03:47:41.020Z,19.36
2017-08-28T03:50:08.495Z,19.25
2017-08-28T03:52:35.989Z,19.25
2017-08-28T03:55:04.373Z,19.33
2017-08-28T03:57:31.981Z,19.43
2017-08-28T03:59:59.934Z,19.40
2017-08-28T04:02:27.406Z,19.31
2017-08-28T04:04:54.914Z,19.20
2017-08-28T04:07:22.397Z,19.37
2017-08-28T04:09:49.904Z,19.41
2017-08-28T04:12:17.448Z,19.41
2017-08-28T04:14:44.976Z,19.41
2017-08-28T04:17:12.507Z,19.40
2017-08-28T04:19:40.002Z,19.33
2017-08-28T04:22:07.519Z,19.27
2017-08-28T04:24:35.811Z,19.36
2017-08-28T04:27:03.330Z,19.35
2017-08-28T04:29:30.801Z,19.25
2017-08-28T04:31:58.367Z,19.18
2017-08-28T04:34:25.838Z,19.18
2017-08-28T04:36:53.344Z,19.21
2017-08-28T04:39:20.855Z,19.04
2017-08-28T04:41:48.337Z,19.01
2017-08-28T04:44:15.864Z,19.01
2017-08-28T04:46:43.371Z,19.08
2017-08-28T04:49:10.861Z,18.80
2017-08-28T04:51:38.364Z,19.07
2017-08-28T04:54:05.857Z,19.09
2017-08-28T04:56:33.358Z,19.10
2017-08-28T04:59:00.876Z,19.05
2017-08-28T05:01:28.355Z,18.97
2017-08-28T05:03:55.906Z,19.03
2017-08-28T05:06:23.457Z,19.03
2017-08-28T05:08:51.341Z,18.85
2017-08-28T05:11:18.851Z,18.86
2017-08-28T05:13:46.437Z,18.81
2017-08-28T05:16:13.966Z,18.82
2017-08-28T05:18:41.454Z,18.74
2017-08-28T05:21:08.940Z,18.77
2017-08-28T05:23:36.491Z,18.69
2017-08-28T05:26:04.526Z,18.16
2017-08-28T05:28:32.037Z,18.74
2017-08-28T05:30:59.599Z,18.72
2017-08-28T05:33:28.607Z,18.83
2017-08-28T05:35:56.085Z,18.88
2017-08-28T05:38:24.144Z,18.96
2017-08-28T05:40:52.769Z,19.02
2017-08-28T05:43:20.281Z,18.97
2017-08-28T05:45:47.861Z,18.98
2017-08-28T05:48:15.389Z,19.10
2017-08-28T05:50:42.925Z,19.13
2017-08-28T05:53:10.412Z,19.15
2017-08-28T05:55:37.878Z,19.15
2017-08-28T05:58:05.374Z,19.09
2017-08-28T06:00:32.878Z,19.12
2017-08-28T06:03:00.341Z,19.07
2017-08-28T06:05:27.846Z,19.12
2017-08-28T06:07:55.321Z,19.22
2017-08-28T06:10:22.835Z,19.26
2017-08-28T06:12:50.335Z,19.45
2017-08-28T06:15:17.789Z,19.50
2017-08-28T06:17:45.281Z,19.58
2017-08-28T06:20:12.814Z,19.51
2017-08-28T06:22:40.306Z,19.62
2017-08-28T06:25:07.783Z,19.70
2017-08-28T06:27:35.305Z,19.93
2017-08-28T06:30:02.773Z,19.93
2017-08-28T06:32:30.273Z,19.93
2017-08-28T06:34:57.778Z,19.90
2017-08-28T06:37:25.237Z,19.88
2017-08-28T06:39:52.777Z,19.98
2017-08-28T06:42:20.253Z,20.06
2017-08-28T06:44:47.738Z,20.14
2017-08-28T06:47:15.239Z,20.22
2017-08-28T06:49:42.757Z,20.28
2017-08-28T06:52:10.259Z,20.39
2017-08-28T06:54:37.771Z,20.48
2017-08-28T06:57:05.281Z,20.56
2017-08-28T06:59:33.353Z,20.67
2017-08-28T07:02:00.854Z,20.73
2017-08-28T07:04:28.362Z,20.84
2017-08-28T07:06:55.850Z,20.89
2017-08-28T07:09:23.351Z,20.94
2017-08-28T07:11:50.892Z,21.04
2017-08-28T07:14:18.411Z,21.14
2017-08-28T07:16:45.891Z,21.23
2017-08-28T07:19:13.444Z,21.32
2017-08-28T07:21:40.950Z,21.38
2017-08-28T07:24:09.223Z,21.44
2017-08-28T07:26:36.719Z,21.48
2017-08-28T07:29:05.146Z,21.58
2017-08-28T07:31:32.643Z,21.68
2017-08-28T07:34:02.502Z,21.79
2017-08-28T07:36:30.015Z,21.78
2017-08-28T07:38:57.502Z,22.02
2017-08-28T07:41:25.022Z,22.04
2017-08-28T07:43:52.576Z,22.10
2017-08-28T07:46:20.099Z,22.04
2017-08-28T07:48:47.616Z,22.39
2017-08-28T07:51:16.046Z,22.48
2017-08-28T07:53:43.539Z,22.62
2017-08-28T07:56:11.034Z,22.68
2017-08-28T07:58:38.509Z,22.79
2017-08-28T08:01:06.150Z,22.81
2017-08-28T08:03:33.642Z,22.91
2017-08-28T08:06:01.183Z,23.10
2017-08-28T08:08:28.712Z,23.19
2017-08-28T08:10:56.195Z,23.26
2017-08-28T08:13:23.713Z,23.39
2017-08-28T08:15:51.214Z,23.48
2017-08-28T08:18:18.717Z,23.41
2017-08-28T08:20:46.314Z,23.40
2017-08-28T08:23:13.837Z,23.54
2017-08-28T08:25:41.406Z,23.56
2017-08-28T08:28:08.907Z,23.66
2017-08-28T08:30:36.430Z,23.44
2017-08-28T08:33:05.059Z,23.27
2017-08-28T08:35:32.561Z,23.34
2017-08-28T08:38:00.030Z,23.57
2017-08-28T08:40:27.535Z,23.72
2017-08-28T08:42:55.884Z,23.87
2017-08-28T08:45:23.709Z,24.08
2017-08-28T08:47:51.247Z,24.25
2017-08-28T08:50:18.915Z,24.42
2017-08-28T08:52:46.388Z,24.58
2017-08-28T08:55:13.870Z,24.72
2017-08-28T08:57:41.365Z,24.80
2017-08-28T09:00:08.862Z,24.86
2017-08-28T09:02:36.381Z,24.92
2017-08-28T09:05:04.123Z,25.04
2017-08-28T09:07:31.660Z,25.22
2017-08-28T09:09:59.260Z,25.24
2017-08-28T09:12:26.778Z,25.24
2017-08-28T09:14:54.887Z,25.39
2017-08-28T09:17:22.395Z,25.47
2017-08-28T09:19:49.915Z,25.63
2017-08-28T09:22:17.451Z,25.31
2017-08-28T09:24:44.949Z,25.30
2017-08-28T09:27:12.691Z,25.28
2017-08-28T09:29:40.195Z,25.50
2017-08-28T09:32:07.729Z,25.72
2017-08-28T09:34:35.288Z,25.62
2017-08-28T09:37:02.778Z,25.79
2017-08-28T09:39:30.827Z,25.94
2017-08-28T09:41:58.323Z,26.07
2017-08-28T09:44:25.810Z,25.77
2017-08-28T09:46:53.324Z,26.35
2017-08-28T09:49:20.852Z,26.08
2017-08-28T09:51:48.349Z,26.17
2017-08-28T09:54:16.742Z,26.29
2017-08-28T09:56:44.233Z,26.06
2017-08-28T09:59:11.779Z,26.18
2017-08-28T10:01:39.287Z,26.07
2017-08-28T10:04:06.836Z,26.45
2017-08-28T10:06:34.396Z,26.74
2017-08-28T10:09:01.929Z,26.90
2017-08-28T10:11:29.772Z,27.20
2017-08-28T10:13:57.271Z,27.38
2017-08-28T10:16:24.753Z,27.44
2017-08-28T10:18:52.240Z,27.43
2017-08-28T10:21:20.758Z,27.46
2017-08-28T10:23:48.263Z,27.34
2017-08-28T10:26:15.794Z,27.34
2017-08-28T10:28:43.303Z,27.51
2017-08-28T10:31:10.837Z,27.71
2017-08-28T10:33:38.333Z,27.66
2017-08-28T10:36:05.853Z,27.58
2017-08-28T10:38:33.348Z,27.71
2017-08-28T10:41:00.878Z,27.89
2017-08-28T10:43:28.395Z,27.81
2017-08-28T10:45:55.912Z,27.92
2017-08-28T10:48:23.429Z,27.87
2017-08-28T10:50:50.904Z,28.09
2017-08-28T10:53:18.995Z,27.97
2017-08-28T10:55:46.472Z,27.83
2017-08-28T10:58:13.982Z,27.77
2017-08-28T11:00:41.499Z,27.79
2017-08-28T11:03:09.018Z,28.10
2017-08-28T11:05:36.546Z,28.39
2017-08-28T11:08:04.138Z,28.33
2017-08-28T11:10:31.687Z,28.64
2017-08-28T11:12:59.861Z,28.83
2017-08-28T11:15:27.354Z,29.02
2017-08-28T11:17:54.873Z,29.00
2017-08-28T11:20:25.131Z,29.03
2017-08-28T11:22:52.789Z,29.10
2017-08-28T11:25:20.279Z,29.24
2017-08-28T11:27:47.791Z,29.15
2017-08-28T11:30:15.295Z,29.09
2017-08-28T11:32:42.797Z,29.26
2017-08-28T11:35:10.725Z,29.45
2017-08-28T11:37:38.232Z,29.61
2017-08-28T11:40:05.718Z,29.83
2017-08-28T11:42:33.317Z,29.73
2017-08-28T11:45:01.271Z,29.71
2017-08-28T11:47:28.766Z,29.82
2017-08-28T11:49:56.255Z,30.04
2017-08-28T11:52:23.844Z,30.19
2017-08-28T11:54:51.310Z,30.11
2017-08-28T11:57:19.433Z,30.08
2017-08-28T11:59:46.928Z,30.12
2017-08-28T12:02:14.444Z,30.00
2017-08-28T12:04:41.959Z,30.09
2017-08-28T12:07:09.962Z,30.29
2017-08-28T12:09:38.202Z,30.41
2017-08-28T12:12:06.132Z,30.21
2017-08-28T12:14:33.660Z,30.09
2017-08-28T12:17:01.154Z,30.13
2017-08-28T12:19:28.681Z,30.02
2017-08-28T12:21:56.161Z,30.35
2017-08-28T12:24:23.641Z,29.88
2017-08-28T12:26:51.164Z,30.19
2017-08-28T12:29:18.947Z,30.27
2017-08-28T12:31:46.553Z,30.36
2017-08-28T12:34:14.053Z,30.50
2017-08-28T12:36:41.575Z,30.88
2017-08-28T12:39:09.120Z,31.15
2017-08-28T12:41:36.719Z,30.92
2017-08-28T12:44:04.828Z,31.07
2017-08-28T12:46:32.304Z,31.03
2017-08-28T12:48:59.804Z,31.47
2017-08-28T12:51:27.343Z,31.19
2017-08-28T12:53:55.815Z,31.43
2017-08-28T12:56:23.352Z,31.45
2017-08-28T12:58:50.911Z,31.51
2017-08-28T13:01:18.394Z,31.75
2017-08-28T13:03:47.848Z,31.57
2017-08-28T13:06:15.322Z,31.73
2017-08-28T13:08:43.707Z,31.89
2017-08-28T13:11:11.202Z,31.96
2017-08-28T13:13:38.718Z,32.13
2017-08-28T13:16:06.286Z,32.46
2017-08-28T13:18:33.801Z,32.52
2017-08-28T13:21:01.326Z,31.92
2017-08-28T13:23:28.857Z,31.19
2017-08-28T13:25:56.413Z,31.41
2017-08-28T13:28:23.961Z,31.46
2017-08-28T13:30:51.449Z,31.98
2017-08-28T13:33:18.953Z,32.05
2017-08-28T13:35:47.015Z,32.40
2017-08-28T13:38:14.540Z,32.87
2017-08-28T13:40:42.022Z,32.87
2017-08-28T13:43:09.582Z,32.54
2017-08-28T13:45:37.634Z,32.90
2017-08-28T13:48:06.178Z,32.76
2017-08-28T13:50:33.782Z,32.63
2017-08-28T13:53:01.284Z,32.54
2017-08-28T13:55:29.503Z,32.56
2017-08-28T13:57:58.484Z,32.16
2017-08-28T14:00:25.987Z,32.10
2017-08-28T14:02:53.475Z,32.36
2017-08-28T14:05:21.033Z,32.58
2017-08-28T14:08:03.034Z,32.56
2017-08-28T14:10:30.528Z,32.36
2017-08-28T14:12:58.043Z,32.49
2017-08-28T14:15:25.590Z,32.66
2017-08-28T14:17:53.151Z,32.67
2017-08-28T14:20:20.673Z,32.33
2017-08-28T14:22:48.228Z,32.86
2017-08-28T14:25:15.796Z,33.41
2017-08-28T14:27:43.279Z,33.72
2017-08-28T14:30:10.823Z,34.11
2017-08-28T14:32:38.811Z,33.67
2017-08-28T14:35:06.423Z,33.56
2017-08-28T14:37:33.910Z,32.98
2017-08-28T14:40:01.434Z,33.45
2017-08-28T14:42:28.896Z,33.93
2017-08-28T14:44:56.383Z,33.42
2017-08-28T14:47:23.904Z,33.90
2017-08-28T14:49:51.401Z,34.22
2017-08-28T14:52:18.919Z,33.85
2017-08-28T14:54:46.997Z,34.05
2017-08-28T14:57:14.490Z,34.28
2017-08-28T14:59:42.009Z,34.62
2017-08-28T15:02:09.497Z,35.02
2017-08-28T15:04:37.022Z,35.45
2017-08-28T15:07:04.846Z,35.88
2017-08-28T15:09:32.351Z,35.87
2017-08-28T15:11:59.906Z,35.10
2017-08-28T15:14:27.377Z,34.97
2017-08-28T15:16:54.874Z,35.17
2017-08-28T15:19:22.438Z,34.85
2017-08-28T15:21:49.991Z,34.78
2017-08-28T15:24:17.516Z,34.52
2017-08-28T15:26:44.985Z,34.91
2017-08-28T15:29:12.495Z,35.12
2017-08-28T15:31:39.964Z,34.77
2017-08-28T15:34:07.553Z,34.22
2017-08-28T15:36:35.029Z,34.95
2017-08-28T15:39:03.078Z,35.16
2017-08-28T15:41:30.606Z,35.56
2017-08-28T15:43:58.069Z,35.41
2017-08-28T15:46:25.559Z,34.82
2017-08-28T15:48:53.021Z,34.56
2017-08-28T15:51:20.521Z,35.05
2017-08-28T15:53:47.999Z,35.21
2017-08-28T15:56:15.487Z,35.80
2017-08-28T15:58:42.989Z,35.04
2017-08-28T16:01:10.477Z,34.71
2017-08-28T16:03:37.962Z,35.17
2017-08-28T16:06:05.442Z,35.68
2017-08-28T16:08:32.968Z,36.13
2017-08-28T16:11:00.494Z,36.06
2017-08-28T16:13:28.011Z,35.27
2017-08-28T16:15:55.479Z,35.48
2017-08-28T16:18:22.957Z,34.94
2017-08-28T16:20:50.449Z,34.29
2017-08-28T16:23:17.901Z,33.99
2017-08-28T16:25:45.390Z,34.34
2017-08-28T16:28:12.892Z,34.01
2017-08-28T16:30:40.396Z,34.65
2017-08-28T16:33:07.863Z,34.96
2017-08-28T16:35:35.376Z,35.42
2017-08-28T16:38:02.851Z,35.42
2017-08-28T16:40:30.356Z,34.97
2017-08-28T16:42:57.863Z,34.64
2017-08-28T16:45:25.376Z,34.50
2017-08-28T16:47:52.850Z,34.33
2017-08-28T16:50:20.736Z,34.07
2017-08-28T16:52:48.378Z,33.89
2017-08-28T16:55:15.872Z,33.72
2017-08-28T16:57:43.450Z,33.46
2017-08-28T17:00:10.922Z,33.33
2017-08-28T17:02:38.527Z,33.19
2017-08-28T17:05:06.026Z,32.92
2017-08-28T17:07:33.708Z,33.10
2017-08-28T17:10:02.268Z,33.21
2017-08-28T17:12:29.853Z,33.17
2017-08-28T17:14:57.347Z,33.35
2017-08-28T17:17:24.909Z,33.02
2017-08-28T17:19:52.497Z,32.77
2017-08-28T17:22:20.070Z,32.40
2017-08-28T17:24:47.599Z,32.22
2017-08-28T17:27:16.637Z,32.03
2017-08-28T17:29:44.276Z,31.92
2017-08-28T17:32:11.730Z,31.53
2017-08-28T17:34:39.262Z,31.25
2017-08-28T17:37:07.306Z,31.13
2017-08-28T17:39:34.770Z,30.99
2017-08-28T17:42:02.401Z,30.96
2017-08-28T17:44:29.911Z,30.96
2017-08-28T17:46:57.438Z,30.93
2017-08-28T17:49:24.897Z,30.79
2017-08-28T17:51:52.385Z,30.71
2017-08-28T17:54:19.907Z,30.71
2017-08-28T17:56:47.413Z,30.92
2017-08-28T17:59:14.946Z,31.05
2017-08-28T18:01:42.873Z,31.14
2017-08-28T18:04:10.381Z,31.11
2017-08-28T18:06:37.850Z,31.02
2017-08-28T18:09:05.394Z,30.97
2017-08-28T18:11:32.859Z,30.96
2017-08-28T18:14:00.343Z,31.01
2017-08-28T18:16:27.794Z,30.96
2017-08-28T18:18:55.480Z,30.93
2017-08-28T18:21:23.250Z,30.88
2017-08-28T18:23:50.751Z,30.89
2017-08-28T18:26:18.233Z,30.83
2017-08-28T18:28:45.716Z,30.65
2017-08-28T18:31:13.226Z,30.48
2017-08-28T18:33:40.748Z,30.44
2017-08-28T18:36:08.250Z,30.46
2017-08-28T18:38:35.715Z,30.40
2017-08-28T18:41:03.233Z,30.27
2017-08-28T18:43:30.722Z,30.14
2017-08-28T18:45:58.248Z,30.11
2017-08-28T18:48:25.746Z,30.04
2017-08-28T18:50:53.230Z,29.99
2017-08-28T18:53:20.784Z,29.97
2017-08-28T18:55:48.396Z,29.90
2017-08-28T18:58:15.894Z,29.49
2017-08-28T19:00:43.416Z,29.26
2017-08-28T19:03:10.917Z,29.19
2017-08-28T19:05:38.381Z,28.94
2017-08-28T19:08:06.023Z,29.07
2017-08-28T19:10:33.488Z,29.00
2017-08-28T19:13:00.971Z,28.98
2017-08-28T19:15:28.473Z,28.77
2017-08-28T19:17:56.044Z,28.37
2017-08-28T19:20:23.576Z,28.08
2017-08-28T19:22:51.062Z,27.89
2017-08-28T19:25:18.582Z,27.77
2017-08-28T19:27:46.114Z,27.52
2017-08-28T19:30:13.611Z,27.44
2017-08-28T19:32:41.097Z,27.49
2017-08-28T19:35:11.578Z,27.32
2017-08-28T19:37:39.089Z,27.29
2017-08-28T19:40:07.140Z,27.24
2017-08-28T19:42:34.657Z,27.12
2017-08-28T19:45:02.163Z,26.98
2017-08-28T19:47:29.668Z,26.83
2017-08-28T19:49:57.161Z,26.88
2017-08-28T19:52:24.702Z,26.64
2017-08-28T19:54:52.241Z,26.92
2017-08-28T19:57:19.727Z,26.78
2017-08-28T19:59:47.242Z,26.70
2017-08-28T20:02:14.722Z,26.55
2017-08-28T20:04:42.257Z,26.41
2017-08-28T20:07:10.222Z,26.41
2017-08-28T20:09:37.732Z,26.28
2017-08-28T20:12:05.339Z,26.08
2017-08-28T20:14:32.832Z,26.11
2017-08-28T20:17:00.329Z,26.01
2017-08-28T20:19:27.817Z,26.01
2017-08-28T20:21:55.332Z,25.84
2017-08-28T20:24:22.793Z,25.62
2017-08-28T20:26:50.312Z,25.46
2017-08-28T20:29:17.776Z,25.43
2017-08-28T20:31:45.285Z,25.54
2017-08-28T20:34:12.809Z,25.55
2017-08-28T20:36:40.280Z,25.55
2017-08-28T20:39:07.834Z,25.40
2017-08-28T20:41:35.319Z,25.33
2017-08-28T20:44:02.809Z,25.19
2017-08-28T20:46:30.295Z,25.17
2017-08-28T20:48:57.812Z,25.16
2017-08-28T20:51:25.298Z,25.20
2017-08-28T20:53:52.795Z,25.11
2017-08-28T20:56:20.314Z,25.10
2017-08-28T20:58:47.803Z,25.09
2017-08-28T21:01:15.312Z,25.12
2017-08-28T21:03:42.800Z,25.10
2017-08-28T21:06:10.305Z,25.05
2017-08-28T21:08:37.774Z,25.05
2017-08-28T21:11:05.288Z,25.10
2017-08-28T21:13:32.810Z,24.89
2017-08-28T21:16:00.355Z,24.80
2017-08-28T21:18:27.867Z,24.71
2017-08-28T21:20:55.354Z,24.65
2017-08-28T21:23:22.820Z,24.56
2017-08-28T21:25:50.379Z,24.49
2017-08-28T21:28:17.914Z,24.50
2017-08-28T21:30:45.399Z,24.54
2017-08-28T21:33:12.905Z,24.53
2017-08-28T21:35:40.389Z,24.54
2017-08-28T21:38:07.903Z,24.53
2017-08-28T21:40:35.473Z,24.48
2017-08-28T21:43:02.976Z,24.26
2017-08-28T21:45:30.458Z,24.16
2017-08-28T21:47:58.216Z,24.28
2017-08-28T21:50:25.694Z,24.16
2017-08-28T21:52:53.238Z,24.15
2017-08-28T21:55:20.791Z,24.04
2017-08-28T21:57:48.730Z,23.91
2017-08-28T22:00:16.191Z,23.92
2017-08-28T22:02:43.664Z,23.84
2017-08-28T22:05:11.176Z,23.78
2017-08-28T22:07:38.697Z,23.80
2017-08-28T22:10:06.211Z,23.77
2017-08-28T22:12:33.676Z,23.78
2017-08-28T22:15:01.283Z,23.63
2017-08-28T22:17:28.749Z,23.56
2017-08-28T22:19:56.242Z,23.36
2017-08-28T22:22:23.884Z,23.37
2017-08-28T22:24:51.369Z,23.41
2017-08-28T22:27:18.907Z,23.32
2017-08-28T22:29:46.399Z,23.20
2017-08-28T22:32:13.949Z,23.21
2017-08-28T22:34:41.759Z,23.16
2017-08-28T22:37:09.272Z,23.16
2017-08-28T22:39:36.731Z,23.13
2017-08-28T22:42:04.237Z,23.16
2017-08-28T22:44:31.709Z,23.11
2017-08-28T22:46:59.198Z,23.11
2017-08-28T22:49:26.689Z,22.95
2017-08-28T22:51:54.231Z,22.95
2017-08-28T22:54:21.756Z,23.02
2017-08-28T22:56:49.297Z,22.82
2017-08-28T22:59:16.813Z,22.94
2017-08-28T23:01:44.291Z,22.93
2017-08-28T23:04:11.791Z,22.64
2017-08-28T23:06:39.345Z,22.56
2017-08-28T23:09:06.844Z,22.59
2017-08-28T23:11:34.334Z,22.55
2017-08-28T23:14:01.850Z,22.50
2017-08-28T23:16:29.468Z,22.51
2017-08-28T23:18:57.024Z,22.43
2017-08-28T23:21:24.485Z,22.45
2017-08-28T23:23:52.331Z,22.42
2017-08-28T23:26:19.836Z,22.40
2017-08-28T23:28:47.339Z,22.31
2017-08-28T23:31:14.826Z,22.21
2017-08-28T23:33:42.327Z,22.22
2017-08-28T23:36:09.909Z,22.20
2017-08-28T23:38:37.385Z,22.27
2017-08-28T23:41:05.035Z,21.86
2017-08-28T23:43:32.629Z,22.06
2017-08-28T23:46:00.109Z,22.21
2017-08-28T23:48:27.640Z,22.13
2017-08-28T23:50:55.354Z,22.00
2017-08-28T23:53:22.858Z,22.00
2017-08-28T23:55:50.334Z,21.97
2017-08-28T23:58:17.859Z,21.92
